sensor_id;sensor_type;location;lat;lon;timestamp;P1;P2;P0
30342;PMS5003;17145;49.902;8.680;2023-12-04T00:04:10;35;30;
30342;PMS5003;17145;49.902;8.680;2023-12-04T00:06:37;32;30;
30342;PMS5003;17145;49.902;8.680;2023-12-04T00:09:05;31;28;
30342;PMS5003;17145;49.902;8.680;2023-12-04T00:11:32;30;27;
30342;PMS5003;17145;49.902;8.680;2023-12-04T00:14:00;27;24;
30342;PMS5003;17145;49.902;8.680;2023-12-04T00:16:27;36;28;
30342;PMS5003;17145;49.902;8.680;2023-12-04T00:18:55;32;28;
30342;PMS5003;17145;49.902;8.680;2023-12-04T00:21:22;39;27;
30342;PMS5003;17145;49.902;8.680;2023-12-04T00:23:49;32;28;
30342;PMS5003;17145;49.902;8.680;2023-12-04T00:26:17;31;29;
30342;PMS5003;17145;49.902;8.680;2023-12-04T00:28:44;29;28;
30342;PMS5003;17145;49.902;8.680;2023-12-04T00:31:12;34;25;
30342;PMS5003;17145;49.902;8.680;2023-12-04T00:33:39;23;21;
30342;PMS5003;17145;49.902;8.680;2023-12-04T00:36:07;27;24;
30342;PMS5003;17145;49.902;8.680;2023-12-04T00:38:35;35;24;
30342;PMS5003;17145;49.902;8.680;2023-12-04T00:41:03;27;23;
30342;PMS5003;17145;49.902;8.680;2023-12-04T00:43:31;24;23;
30342;PMS5003;17145;49.902;8.680;2023-12-04T00:45:59;24;17;
30342;PMS5003;17145;49.902;8.680;2023-12-04T00:48:26;24;20;
30342;PMS5003;17145;49.902;8.680;2023-12-04T00:50:54;19;17;
30342;PMS5003;17145;49.902;8.680;2023-12-04T00:53:21;24;22;
30342;PMS5003;17145;49.902;8.680;2023-12-04T00:55:48;23;21;
30342;PMS5003;17145;49.902;8.680;2023-12-04T00:58:16;24;23;
30342;PMS5003;17145;49.902;8.680;2023-12-04T01:00:43;21;20;
30342;PMS5003;17145;49.902;8.680;2023-12-04T01:03:11;35;24;
30342;PMS5003;17145;49.902;8.680;2023-12-04T01:05:38;32;24;
30342;PMS5003;17145;49.902;8.680;2023-12-04T01:08:06;25;21;
30342;PMS5003;17145;49.902;8.680;2023-12-04T01:10:33;25;24;
30342;PMS5003;17145;49.902;8.680;2023-12-04T01:13:01;23;20;
30342;PMS5003;17145;49.902;8.680;2023-12-04T01:15:28;24;23;
30342;PMS5003;17145;49.902;8.680;2023-12-04T01:17:56;24;21;
30342;PMS5003;17145;49.902;8.680;2023-12-04T01:20:23;27;25;
30342;PMS5003;17145;49.902;8.680;2023-12-04T01:22:50;24;23;
30342;PMS5003;17145;49.902;8.680;2023-12-04T01:25:18;21;20;
30342;PMS5003;17145;49.902;8.680;2023-12-04T01:27:46;23;20;
30342;PMS5003;17145;49.902;8.680;2023-12-04T01:30:13;17;17;
30342;PMS5003;17145;49.902;8.680;2023-12-04T01:32:41;20;19;
30342;PMS5003;17145;49.902;8.680;2023-12-04T01:35:08;23;20;
30342;PMS5003;17145;49.902;8.680;2023-12-04T01:37:36;21;20;
30342;PMS5003;17145;49.902;8.680;2023-12-04T01:40:04;27;21;
30342;PMS5003;17145;49.902;8.680;2023-12-04T01:42:33;24;19;
30342;PMS5003;17145;49.902;8.680;2023-12-04T01:45:00;19;16;
30342;PMS5003;17145;49.902;8.680;2023-12-04T01:47:28;19;16;
30342;PMS5003;17145;49.902;8.680;2023-12-04T01:49:55;21;16;
30342;PMS5003;17145;49.902;8.680;2023-12-04T01:52:23;21;20;
30342;PMS5003;17145;49.902;8.680;2023-12-04T01:54:51;20;20;
30342;PMS5003;17145;49.902;8.680;2023-12-04T01:57:18;23;20;
30342;PMS5003;17145;49.902;8.680;2023-12-04T01:59:46;24;19;
30342;PMS5003;17145;49.902;8.680;2023-12-04T02:02:14;19;17;
30342;PMS5003;17145;49.902;8.680;2023-12-04T02:04:42;19;17;
30342;PMS5003;17145;49.902;8.680;2023-12-04T02:07:09;33;20;
30342;PMS5003;17145;49.902;8.680;2023-12-04T02:09:37;20;17;
30342;PMS5003;17145;49.902;8.680;2023-12-04T02:12:05;23;16;
30342;PMS5003;17145;49.902;8.680;2023-12-04T02:14:33;19;16;
30342;PMS5003;17145;49.902;8.680;2023-12-04T02:17:00;20;19;
30342;PMS5003;17145;49.902;8.680;2023-12-04T02:19:32;20;20;
30342;PMS5003;17145;49.902;8.680;2023-12-04T02:21:59;17;16;
30342;PMS5003;17145;49.902;8.680;2023-12-04T02:24:27;19;19;
30342;PMS5003;17145;49.902;8.680;2023-12-04T02:26:59;21;19;
30342;PMS5003;17145;49.902;8.680;2023-12-04T02:29:32;19;17;
30342;PMS5003;17145;49.902;8.680;2023-12-04T02:32:04;19;16;
30342;PMS5003;17145;49.902;8.680;2023-12-04T02:34:38;23;19;
30342;PMS5003;17145;49.902;8.680;2023-12-04T02:37:08;22;17;
30342;PMS5003;17145;49.902;8.680;2023-12-04T02:39:37;37;23;
30342;PMS5003;17145;49.902;8.680;2023-12-04T02:42:05;19;17;
30342;PMS5003;17145;49.902;8.680;2023-12-04T02:44:33;33;28;
30342;PMS5003;17145;49.902;8.680;2023-12-04T02:47:00;31;23;
30342;PMS5003;17145;49.902;8.680;2023-12-04T02:49:28;30;27;
30342;PMS5003;17145;49.902;8.680;2023-12-04T02:51:55;28;23;
30342;PMS5003;17145;49.902;8.680;2023-12-04T02:54:23;35;26;
30342;PMS5003;17145;49.902;8.680;2023-12-04T02:56:50;37;24;
30342;PMS5003;17145;49.902;8.680;2023-12-04T02:59:18;28;23;
30342;PMS5003;17145;49.902;8.680;2023-12-04T03:01:45;24;22;
30342;PMS5003;17145;49.902;8.680;2023-12-04T03:04:13;21;20;
30342;PMS5003;17145;49.902;8.680;2023-12-04T03:06:41;30;26;
30342;PMS5003;17145;49.902;8.680;2023-12-04T03:09:08;30;23;
30342;PMS5003;17145;49.902;8.680;2023-12-04T03:11:36;27;26;
30342;PMS5003;17145;49.902;8.680;2023-12-04T03:14:06;35;26;
30342;PMS5003;17145;49.902;8.680;2023-12-04T03:16:34;28;26;
30342;PMS5003;17145;49.902;8.680;2023-12-04T03:19:01;45;29;
30342;PMS5003;17145;49.902;8.680;2023-12-04T03:21:29;35;31;
30342;PMS5003;17145;49.902;8.680;2023-12-04T03:23:56;31;27;
30342;PMS5003;17145;49.902;8.680;2023-12-04T03:26:24;39;30;
30342;PMS5003;17145;49.902;8.680;2023-12-04T03:28:51;35;26;
30342;PMS5003;17145;49.902;8.680;2023-12-04T03:31:19;24;24;
30342;PMS5003;17145;49.902;8.680;2023-12-04T03:33:46;33;26;
30342;PMS5003;17145;49.902;8.680;2023-12-04T03:36:14;28;24;
30342;PMS5003;17145;49.902;8.680;2023-12-04T03:38:42;31;28;
30342;PMS5003;17145;49.902;8.680;2023-12-04T03:41:13;26;25;
30342;PMS5003;17145;49.902;8.680;2023-12-04T03:43:41;26;23;
30342;PMS5003;17145;49.902;8.680;2023-12-04T03:46:08;38;27;
30342;PMS5003;17145;49.902;8.680;2023-12-04T03:48:36;28;24;
30342;PMS5003;17145;49.902;8.680;2023-12-04T03:51:04;37;24;
30342;PMS5003;17145;49.902;8.680;2023-12-04T03:53:33;44;27;
30342;PMS5003;17145;49.902;8.680;2023-12-04T03:56:00;30;29;
30342;PMS5003;17145;49.902;8.680;2023-12-04T03:58:28;31;27;
30342;PMS5003;17145;49.902;8.680;2023-12-04T04:00:55;31;26;
30342;PMS5003;17145;49.902;8.680;2023-12-04T04:03:22;48;29;
30342;PMS5003;17145;49.902;8.680;2023-12-04T04:05:50;45;27;
30342;PMS5003;17145;49.902;8.680;2023-12-04T04:08:18;27;23;
30342;PMS5003;17145;49.902;8.680;2023-12-04T04:10:45;45;27;
30342;PMS5003;17145;49.902;8.680;2023-12-04T04:13:13;29;27;
30342;PMS5003;17145;49.902;8.680;2023-12-04T04:15:40;26;23;
30342;PMS5003;17145;49.902;8.680;2023-12-04T04:18:08;31;27;
30342;PMS5003;17145;49.902;8.680;2023-12-04T04:20:35;31;27;
30342;PMS5003;17145;49.902;8.680;2023-12-04T04:23:03;26;24;
30342;PMS5003;17145;49.902;8.680;2023-12-04T04:25:31;36;31;
30342;PMS5003;17145;49.902;8.680;2023-12-04T04:27:58;51;30;
30342;PMS5003;17145;49.902;8.680;2023-12-04T04:30:26;33;26;
30342;PMS5003;17145;49.902;8.680;2023-12-04T04:32:53;31;30;
30342;PMS5003;17145;49.902;8.680;2023-12-04T04:35:21;51;39;
30342;PMS5003;17145;49.902;8.680;2023-12-04T04:37:48;34;31;
30342;PMS5003;17145;49.902;8.680;2023-12-04T04:40:17;38;31;
30342;PMS5003;17145;49.902;8.680;2023-12-04T04:42:44;34;30;
30342;PMS5003;17145;49.902;8.680;2023-12-04T04:45:12;38;33;
30342;PMS5003;17145;49.902;8.680;2023-12-04T04:47:40;51;29;
30342;PMS5003;17145;49.902;8.680;2023-12-04T04:50:08;47;41;
30342;PMS5003;17145;49.902;8.680;2023-12-04T04:52:36;37;36;
30342;PMS5003;17145;49.902;8.680;2023-12-04T04:55:04;45;32;
30342;PMS5003;17145;49.902;8.680;2023-12-04T04:57:32;40;29;
30342;PMS5003;17145;49.902;8.680;2023-12-04T04:59:59;45;33;
30342;PMS5003;17145;49.902;8.680;2023-12-04T05:02:27;45;40;
30342;PMS5003;17145;49.902;8.680;2023-12-04T05:04:54;47;27;
30342;PMS5003;17145;49.902;8.680;2023-12-04T05:07:22;47;34;
30342;PMS5003;17145;49.902;8.680;2023-12-04T05:09:49;45;29;
30342;PMS5003;17145;49.902;8.680;2023-12-04T05:12:17;31;29;
30342;PMS5003;17145;49.902;8.680;2023-12-04T05:14:44;27;26;
30342;PMS5003;17145;49.902;8.680;2023-12-04T05:17:12;34;34;
30342;PMS5003;17145;49.902;8.680;2023-12-04T05:19:39;36;29;
30342;PMS5003;17145;49.902;8.680;2023-12-04T05:22:08;50;25;
30342;PMS5003;17145;49.902;8.680;2023-12-04T05:24:35;31;27;
30342;PMS5003;17145;49.902;8.680;2023-12-04T05:27:03;37;30;
30342;PMS5003;17145;49.902;8.680;2023-12-04T05:29:31;38;34;
30342;PMS5003;17145;49.902;8.680;2023-12-04T05:31:59;32;30;
30342;PMS5003;17145;49.902;8.680;2023-12-04T05:34:26;44;29;
30342;PMS5003;17145;49.902;8.680;2023-12-04T05:36:54;48;30;
30342;PMS5003;17145;49.902;8.680;2023-12-04T05:39:21;26;25;
30342;PMS5003;17145;49.902;8.680;2023-12-04T05:41:49;36;33;
30342;PMS5003;17145;49.902;8.680;2023-12-04T05:44:16;47;47;
30342;PMS5003;17145;49.902;8.680;2023-12-04T05:46:44;50;30;
30342;PMS5003;17145;49.902;8.680;2023-12-04T05:49:11;41;33;
30342;PMS5003;17145;49.902;8.680;2023-12-04T05:51:38;41;33;
30342;PMS5003;17145;49.902;8.680;2023-12-04T05:54:06;44;34;
30342;PMS5003;17145;49.902;8.680;2023-12-04T05:56:34;57;48;
30342;PMS5003;17145;49.902;8.680;2023-12-04T05:59:01;44;39;
30342;PMS5003;17145;49.902;8.680;2023-12-04T06:01:28;61;54;
30342;PMS5003;17145;49.902;8.680;2023-12-04T06:03:56;40;30;
30342;PMS5003;17145;49.902;8.680;2023-12-04T06:06:23;41;40;
30342;PMS5003;17145;49.902;8.680;2023-12-04T06:08:51;39;37;
30342;PMS5003;17145;49.902;8.680;2023-12-04T06:11:19;27;25;
30342;PMS5003;17145;49.902;8.680;2023-12-04T06:13:46;29;23;
30342;PMS5003;17145;49.902;8.680;2023-12-04T06:16:15;26;26;
30342;PMS5003;17145;49.902;8.680;2023-12-04T06:18:42;47;36;
30342;PMS5003;17145;49.902;8.680;2023-12-04T06:21:10;46;30;
30342;PMS5003;17145;49.902;8.680;2023-12-04T06:23:38;51;50;
30342;PMS5003;17145;49.902;8.680;2023-12-04T06:26:07;44;40;
30342;PMS5003;17145;49.902;8.680;2023-12-04T06:28:35;60;53;
30342;PMS5003;17145;49.902;8.680;2023-12-04T06:31:04;61;58;
30342;PMS5003;17145;49.902;8.680;2023-12-04T06:33:35;32;26;
30342;PMS5003;17145;49.902;8.680;2023-12-04T06:38:36;22;19;
30342;PMS5003;17145;49.902;8.680;2023-12-04T06:41:07;20;18;
30342;PMS5003;17145;49.902;8.680;2023-12-04T06:43:37;23;19;
30342;PMS5003;17145;49.902;8.680;2023-12-04T06:46:06;19;15;
30342;PMS5003;17145;49.902;8.680;2023-12-04T06:48:37;19;13;
30342;PMS5003;17145;49.902;8.680;2023-12-04T06:51:06;22;16;
30342;PMS5003;17145;49.902;8.680;2023-12-04T06:53:34;20;19;
30342;PMS5003;17145;49.902;8.680;2023-12-04T06:56:01;23;19;
30342;PMS5003;17145;49.902;8.680;2023-12-04T06:58:29;21;18;
30342;PMS5003;17145;49.902;8.680;2023-12-04T07:00:57;22;18;
30342;PMS5003;17145;49.902;8.680;2023-12-04T07:03:24;22;19;
30342;PMS5003;17145;49.902;8.680;2023-12-04T07:05:52;15;15;
30342;PMS5003;17145;49.902;8.680;2023-12-04T07:08:19;21;18;
30342;PMS5003;17145;49.902;8.680;2023-12-04T07:10:48;19;18;
30342;PMS5003;17145;49.902;8.680;2023-12-04T07:13:15;19;16;
30342;PMS5003;17145;49.902;8.680;2023-12-04T07:15:43;18;16;
30342;PMS5003;17145;49.902;8.680;2023-12-04T07:18:11;18;16;
30342;PMS5003;17145;49.902;8.680;2023-12-04T07:20:38;29;22;
30342;PMS5003;17145;49.902;8.680;2023-12-04T07:23:05;19;17;
30342;PMS5003;17145;49.902;8.680;2023-12-04T07:25:33;15;15;
30342;PMS5003;17145;49.902;8.680;2023-12-04T07:28:00;21;19;
30342;PMS5003;17145;49.902;8.680;2023-12-04T07:30:27;23;19;
30342;PMS5003;17145;49.902;8.680;2023-12-04T07:32:55;21;16;
30342;PMS5003;17145;49.902;8.680;2023-12-04T07:35:22;19;18;
30342;PMS5003;17145;49.902;8.680;2023-12-04T07:37:50;15;14;
30342;PMS5003;17145;49.902;8.680;2023-12-04T07:40:18;21;18;
30342;PMS5003;17145;49.902;8.680;2023-12-04T07:42:47;17;15;
30342;PMS5003;17145;49.902;8.680;2023-12-04T07:45:14;25;19;
30342;PMS5003;17145;49.902;8.680;2023-12-04T07:47:42;19;18;
30342;PMS5003;17145;49.902;8.680;2023-12-04T07:50:09;18;16;
30342;PMS5003;17145;49.902;8.680;2023-12-04T07:52:37;22;18;
30342;PMS5003;17145;49.902;8.680;2023-12-04T07:55:05;35;16;
30342;PMS5003;17145;49.902;8.680;2023-12-04T07:57:34;19;18;
30342;PMS5003;17145;49.902;8.680;2023-12-04T08:00:02;26;21;
30342;PMS5003;17145;49.902;8.680;2023-12-04T08:02:30;21;18;
30342;PMS5003;17145;49.902;8.680;2023-12-04T08:04:58;21;19;
30342;PMS5003;17145;49.902;8.680;2023-12-04T08:07:25;18;16;
30342;PMS5003;17145;49.902;8.680;2023-12-04T08:09:53;18;16;
30342;PMS5003;17145;49.902;8.680;2023-12-04T08:12:20;21;15;
30342;PMS5003;17145;49.902;8.680;2023-12-04T08:14:48;25;18;
30342;PMS5003;17145;49.902;8.680;2023-12-04T08:17:15;21;18;
30342;PMS5003;17145;49.902;8.680;2023-12-04T08:19:44;28;21;
30342;PMS5003;17145;49.902;8.680;2023-12-04T08:22:11;18;16;
30342;PMS5003;17145;49.902;8.680;2023-12-04T08:24:39;21;15;
30342;PMS5003;17145;49.902;8.680;2023-12-04T08:27:07;22;18;
30342;PMS5003;17145;49.902;8.680;2023-12-04T08:29:34;16;15;
30342;PMS5003;17145;49.902;8.680;2023-12-04T08:32:02;16;16;
30342;PMS5003;17145;49.902;8.680;2023-12-04T08:34:30;21;18;
30342;PMS5003;17145;49.902;8.680;2023-12-04T08:36:57;16;15;
30342;PMS5003;17145;49.902;8.680;2023-12-04T08:39:24;25;18;
30342;PMS5003;17145;49.902;8.680;2023-12-04T08:41:52;24;18;
30342;PMS5003;17145;49.902;8.680;2023-12-04T08:44:19;21;18;
30342;PMS5003;17145;49.902;8.680;2023-12-04T08:46:47;24;19;
30342;PMS5003;17145;49.902;8.680;2023-12-04T08:49:14;25;21;
30342;PMS5003;17145;49.902;8.680;2023-12-04T08:51:42;33;19;
30342;PMS5003;17145;49.902;8.680;2023-12-04T08:54:09;39;19;
30342;PMS5003;17145;49.902;8.680;2023-12-04T08:56:37;25;22;
30342;PMS5003;17145;49.902;8.680;2023-12-04T08:59:05;25;24;
30342;PMS5003;17145;49.902;8.680;2023-12-04T09:01:32;24;22;
30342;PMS5003;17145;49.902;8.680;2023-12-04T09:04:00;29;21;
30342;PMS5003;17145;49.902;8.680;2023-12-04T09:06:27;25;22;
30342;PMS5003;17145;49.902;8.680;2023-12-04T09:08:55;29;18;
30342;PMS5003;17145;49.902;8.680;2023-12-04T09:11:22;25;21;
30342;PMS5003;17145;49.902;8.680;2023-12-04T09:13:49;29;26;
30342;PMS5003;17145;49.902;8.680;2023-12-04T09:16:17;25;21;
30342;PMS5003;17145;49.902;8.680;2023-12-04T09:18:44;25;24;
30342;PMS5003;17145;49.902;8.680;2023-12-04T09:21:12;29;26;
30342;PMS5003;17145;49.902;8.680;2023-12-04T09:23:40;38;29;
30342;PMS5003;17145;49.902;8.680;2023-12-04T09:26:07;29;26;
30342;PMS5003;17145;49.902;8.680;2023-12-04T09:28:35;26;22;
30342;PMS5003;17145;49.902;8.680;2023-12-04T09:31:03;29;24;
30342;PMS5003;17145;49.902;8.680;2023-12-04T09:33:30;25;22;
30342;PMS5003;17145;49.902;8.680;2023-12-04T09:35:58;25;19;
30342;PMS5003;17145;49.902;8.680;2023-12-04T09:38:25;41;27;
30342;PMS5003;17145;49.902;8.680;2023-12-04T09:40:53;28;24;
30342;PMS5003;17145;49.902;8.680;2023-12-04T09:43:25;29;28;
30342;PMS5003;17145;49.902;8.680;2023-12-04T09:45:53;36;22;
30342;PMS5003;17145;49.902;8.680;2023-12-04T09:48:21;31;25;
30342;PMS5003;17145;49.902;8.680;2023-12-04T09:50:50;42;29;
30342;PMS5003;17145;49.902;8.680;2023-12-04T09:53:20;54;27;
30342;PMS5003;17145;49.902;8.680;2023-12-04T09:55:49;24;21;
30342;PMS5003;17145;49.902;8.680;2023-12-04T09:58:18;36;34;
30342;PMS5003;17145;49.902;8.680;2023-12-04T10:00:46;42;32;
30342;PMS5003;17145;49.902;8.680;2023-12-04T10:03:14;45;26;
30342;PMS5003;17145;49.902;8.680;2023-12-04T10:05:43;32;29;
30342;PMS5003;17145;49.902;8.680;2023-12-04T10:08:11;42;34;
30342;PMS5003;17145;49.902;8.680;2023-12-04T10:10:38;32;29;
30342;PMS5003;17145;49.902;8.680;2023-12-04T10:13:06;29;27;
30342;PMS5003;17145;49.902;8.680;2023-12-04T10:15:33;38;29;
30342;PMS5003;17145;49.902;8.680;2023-12-04T10:18:06;48;29;
30342;PMS5003;17145;49.902;8.680;2023-12-04T10:20:39;28;25;
30342;PMS5003;17145;49.902;8.680;2023-12-04T10:23:17;28;24;
30342;PMS5003;17145;49.902;8.680;2023-12-04T10:25:44;34;28;
30342;PMS5003;17145;49.902;8.680;2023-12-04T10:28:12;40;24;
30342;PMS5003;17145;49.902;8.680;2023-12-04T10:30:40;34;29;
30342;PMS5003;17145;49.902;8.680;2023-12-04T10:33:08;31;27;
30342;PMS5003;17145;49.902;8.680;2023-12-04T10:35:36;32;27;
30342;PMS5003;17145;49.902;8.680;2023-12-04T10:38:04;41;30;
30342;PMS5003;17145;49.902;8.680;2023-12-04T10:40:33;29;27;
30342;PMS5003;17145;49.902;8.680;2023-12-04T10:45:39;24;24;
30342;PMS5003;17145;49.902;8.680;2023-12-04T10:48:08;31;27;
30342;PMS5003;17145;49.902;8.680;2023-12-04T10:50:37;35;28;
30342;PMS5003;17145;49.902;8.680;2023-12-04T10:53:06;34;27;
30342;PMS5003;17145;49.902;8.680;2023-12-04T10:55:34;47;31;
30342;PMS5003;17145;49.902;8.680;2023-12-04T10:58:03;28;25;
30342;PMS5003;17145;49.902;8.680;2023-12-04T11:00:34;42;28;
30342;PMS5003;17145;49.902;8.680;2023-12-04T11:03:04;32;28;
30342;PMS5003;17145;49.902;8.680;2023-12-04T11:05:36;45;34;
30342;PMS5003;17145;49.902;8.680;2023-12-04T11:08:06;32;31;
30342;PMS5003;17145;49.902;8.680;2023-12-04T11:10:37;40;27;
30342;PMS5003;17145;49.902;8.680;2023-12-04T11:13:13;40;28;
30342;PMS5003;17145;49.902;8.680;2023-12-04T11:15:45;30;27;
30342;PMS5003;17145;49.902;8.680;2023-12-04T11:18:15;35;28;
30342;PMS5003;17145;49.902;8.680;2023-12-04T11:20:50;30;28;
30342;PMS5003;17145;49.902;8.680;2023-12-04T11:23:20;31;27;
30342;PMS5003;17145;49.902;8.680;2023-12-04T11:25:49;27;22;
30342;PMS5003;17145;49.902;8.680;2023-12-04T11:28:17;40;27;
30342;PMS5003;17145;49.902;8.680;2023-12-04T11:30:46;40;25;
30342;PMS5003;17145;49.902;8.680;2023-12-04T11:33:15;51;31;
30342;PMS5003;17145;49.902;8.680;2023-12-04T11:35:43;40;27;
30342;PMS5003;17145;49.902;8.680;2023-12-04T11:38:12;31;28;
30342;PMS5003;17145;49.902;8.680;2023-12-04T11:40:40;32;28;
30342;PMS5003;17145;49.902;8.680;2023-12-04T11:45:50;37;30;
30342;PMS5003;17145;49.902;8.680;2023-12-04T11:48:22;32;24;
30342;PMS5003;17145;49.902;8.680;2023-12-04T11:50:49;30;27;
30342;PMS5003;17145;49.902;8.680;2023-12-04T11:53:17;32;28;
30342;PMS5003;17145;49.902;8.680;2023-12-04T11:55:45;37;27;
30342;PMS5003;17145;49.902;8.680;2023-12-04T11:58:13;31;27;
30342;PMS5003;17145;49.902;8.680;2023-12-04T12:00:43;42;28;
30342;PMS5003;17145;49.902;8.680;2023-12-04T12:03:11;35;32;
30342;PMS5003;17145;49.902;8.680;2023-12-04T12:05:41;37;31;
30342;PMS5003;17145;49.902;8.680;2023-12-04T12:08:10;31;28;
30342;PMS5003;17145;49.902;8.680;2023-12-04T12:10:37;30;25;
30342;PMS5003;17145;49.902;8.680;2023-12-04T12:13:05;34;30;
30342;PMS5003;17145;49.902;8.680;2023-12-04T12:15:32;34;28;
30342;PMS5003;17145;49.902;8.680;2023-12-04T12:18:00;38;31;
30342;PMS5003;17145;49.902;8.680;2023-12-04T12:20:28;35;31;
30342;PMS5003;17145;49.902;8.680;2023-12-04T12:22:55;35;28;
30342;PMS5003;17145;49.902;8.680;2023-12-04T12:25:23;34;30;
30342;PMS5003;17145;49.902;8.680;2023-12-04T12:27:51;41;28;
30342;PMS5003;17145;49.902;8.680;2023-12-04T12:30:19;24;22;
30342;PMS5003;17145;49.902;8.680;2023-12-04T12:32:46;34;28;
30342;PMS5003;17145;49.902;8.680;2023-12-04T12:35:14;30;25;
30342;PMS5003;17145;49.902;8.680;2023-12-04T12:37:41;37;30;
30342;PMS5003;17145;49.902;8.680;2023-12-04T12:40:09;40;25;
30342;PMS5003;17145;49.902;8.680;2023-12-04T12:42:37;42;28;
30342;PMS5003;17145;49.902;8.680;2023-12-04T12:45:05;34;30;
30342;PMS5003;17145;49.902;8.680;2023-12-04T12:47:33;31;25;
30342;PMS5003;17145;49.902;8.680;2023-12-04T12:50:02;27;25;
30342;PMS5003;17145;49.902;8.680;2023-12-04T12:52:30;27;25;
30342;PMS5003;17145;49.902;8.680;2023-12-04T12:55:00;48;31;
30342;PMS5003;17145;49.902;8.680;2023-12-04T12:57:27;34;25;
30342;PMS5003;17145;49.902;8.680;2023-12-04T12:59:55;38;27;
30342;PMS5003;17145;49.902;8.680;2023-12-04T13:02:23;40;27;
30342;PMS5003;17145;49.902;8.680;2023-12-04T13:04:51;34;24;
30342;PMS5003;17145;49.902;8.680;2023-12-04T13:07:18;20;20;
30342;PMS5003;17145;49.902;8.680;2023-12-04T13:09:45;27;24;
30342;PMS5003;17145;49.902;8.680;2023-12-04T13:12:13;27;24;
30342;PMS5003;17145;49.902;8.680;2023-12-04T13:14:41;28;25;
30342;PMS5003;17145;49.902;8.680;2023-12-04T13:17:08;37;30;
30342;PMS5003;17145;49.902;8.680;2023-12-04T13:19:36;20;20;
30342;PMS5003;17145;49.902;8.680;2023-12-04T13:22:03;27;20;
30342;PMS5003;17145;49.902;8.680;2023-12-04T13:24:31;30;27;
30342;PMS5003;17145;49.902;8.680;2023-12-04T13:26:58;21;21;
30342;PMS5003;17145;49.902;8.680;2023-12-04T13:29:26;28;25;
30342;PMS5003;17145;49.902;8.680;2023-12-04T13:31:53;28;24;
30342;PMS5003;17145;49.902;8.680;2023-12-04T13:34:21;26;20;
30342;PMS5003;17145;49.902;8.680;2023-12-04T13:36:48;27;24;
30342;PMS5003;17145;49.902;8.680;2023-12-04T13:39:16;33;23;
30342;PMS5003;17145;49.902;8.680;2023-12-04T13:41:44;30;24;
30342;PMS5003;17145;49.902;8.680;2023-12-04T13:44:12;37;20;
30342;PMS5003;17145;49.902;8.680;2023-12-04T13:46:40;28;27;
30342;PMS5003;17145;49.902;8.680;2023-12-04T13:49:07;33;24;
30342;PMS5003;17145;49.902;8.680;2023-12-04T13:51:35;28;24;
30342;PMS5003;17145;49.902;8.680;2023-12-04T13:54:03;31;21;
30342;PMS5003;17145;49.902;8.680;2023-12-04T13:56:30;39;27;
30342;PMS5003;17145;49.902;8.680;2023-12-04T13:58:57;24;21;
30342;PMS5003;17145;49.902;8.680;2023-12-04T14:01:25;31;23;
30342;PMS5003;17145;49.902;8.680;2023-12-04T14:03:53;27;21;
30342;PMS5003;17145;49.902;8.680;2023-12-04T14:06:21;27;20;
30342;PMS5003;17145;49.902;8.680;2023-12-04T14:08:48;23;21;
30342;PMS5003;17145;49.902;8.680;2023-12-04T14:11:16;26;24;
30342;PMS5003;17145;49.902;8.680;2023-12-04T14:13:44;44;24;
30342;PMS5003;17145;49.902;8.680;2023-12-04T14:16:11;39;20;
30342;PMS5003;17145;49.902;8.680;2023-12-04T14:18:39;29;17;
30342;PMS5003;17145;49.902;8.680;2023-12-04T14:21:07;27;24;
30342;PMS5003;17145;49.902;8.680;2023-12-04T14:23:35;29;21;
30342;PMS5003;17145;49.902;8.680;2023-12-04T14:26:02;26;24;
30342;PMS5003;17145;49.902;8.680;2023-12-04T14:28:30;30;27;
30342;PMS5003;17145;49.902;8.680;2023-12-04T14:30:58;26;23;
30342;PMS5003;17145;49.902;8.680;2023-12-04T14:33:26;25;24;
30342;PMS5003;17145;49.902;8.680;2023-12-04T14:35:53;24;23;
30342;PMS5003;17145;49.902;8.680;2023-12-04T14:38:21;34;23;
30342;PMS5003;17145;49.902;8.680;2023-12-04T14:40:48;24;21;
30342;PMS5003;17145;49.902;8.680;2023-12-04T14:43:16;21;20;
30342;PMS5003;17145;49.902;8.680;2023-12-04T14:45:43;29;21;
30342;PMS5003;17145;49.902;8.680;2023-12-04T14:48:11;26;18;
30342;PMS5003;17145;49.902;8.680;2023-12-04T14:50:38;24;21;
30342;PMS5003;17145;49.902;8.680;2023-12-04T14:53:06;26;25;
30342;PMS5003;17145;49.902;8.680;2023-12-04T14:55:33;29;26;
30342;PMS5003;17145;49.902;8.680;2023-12-04T14:58:01;23;20;
30342;PMS5003;17145;49.902;8.680;2023-12-04T15:00:29;30;23;
30342;PMS5003;17145;49.902;8.680;2023-12-04T15:02:56;27;20;
30342;PMS5003;17145;49.902;8.680;2023-12-04T15:05:24;26;21;
30342;PMS5003;17145;49.902;8.680;2023-12-04T15:07:51;23;21;
30342;PMS5003;17145;49.902;8.680;2023-12-04T15:10:19;21;20;
30342;PMS5003;17145;49.902;8.680;2023-12-04T15:12:46;36;33;
30342;PMS5003;17145;49.902;8.680;2023-12-04T15:15:14;37;32;
30342;PMS5003;17145;49.902;8.680;2023-12-04T15:17:42;32;29;
30342;PMS5003;17145;49.902;8.680;2023-12-04T15:20:09;29;29;
30342;PMS5003;17145;49.902;8.680;2023-12-04T15:22:37;36;33;
30342;PMS5003;17145;49.902;8.680;2023-12-04T15:25:05;29;29;
30342;PMS5003;17145;49.902;8.680;2023-12-04T15:27:33;33;32;
30342;PMS5003;17145;49.902;8.680;2023-12-04T15:30:00;43;24;
30342;PMS5003;17145;49.902;8.680;2023-12-04T15:32:28;24;21;
30342;PMS5003;17145;49.902;8.680;2023-12-04T15:34:55;27;20;
30342;PMS5003;17145;49.902;8.680;2023-12-04T15:37:23;36;26;
30342;PMS5003;17145;49.902;8.680;2023-12-04T15:39:51;20;20;
30342;PMS5003;17145;49.902;8.680;2023-12-04T15:42:19;30;24;
30342;PMS5003;17145;49.902;8.680;2023-12-04T15:44:46;26;24;
30342;PMS5003;17145;49.902;8.680;2023-12-04T15:47:14;23;20;
30342;PMS5003;17145;49.902;8.680;2023-12-04T15:49:41;24;21;
30342;PMS5003;17145;49.902;8.680;2023-12-04T15:52:08;30;29;
30342;PMS5003;17145;49.902;8.680;2023-12-04T15:54:36;27;27;
30342;PMS5003;17145;49.902;8.680;2023-12-04T15:57:04;26;23;
30342;PMS5003;17145;49.902;8.680;2023-12-04T15:59:31;24;24;
30342;PMS5003;17145;49.902;8.680;2023-12-04T16:01:58;24;24;
30342;PMS5003;17145;49.902;8.680;2023-12-04T16:04:26;26;23;
30342;PMS5003;17145;49.902;8.680;2023-12-04T16:06:54;30;18;
30342;PMS5003;17145;49.902;8.680;2023-12-04T16:09:21;24;21;
30342;PMS5003;17145;49.902;8.680;2023-12-04T16:11:48;20;20;
30342;PMS5003;17145;49.902;8.680;2023-12-04T16:14:16;23;23;
30342;PMS5003;17145;49.902;8.680;2023-12-04T16:16:43;23;23;
30342;PMS5003;17145;49.902;8.680;2023-12-04T16:19:11;35;32;
30342;PMS5003;17145;49.902;8.680;2023-12-04T16:21:38;39;37;
30342;PMS5003;17145;49.902;8.680;2023-12-04T16:24:06;29;24;
30342;PMS5003;17145;49.902;8.680;2023-12-04T16:26:34;30;29;
30342;PMS5003;17145;49.902;8.680;2023-12-04T16:29:01;35;32;
30342;PMS5003;17145;49.902;8.680;2023-12-04T16:31:29;33;32;
30342;PMS5003;17145;49.902;8.680;2023-12-04T16:33:57;40;39;